createdAt,value
2022-11-08T00:01:20.720Z,69.42
2022-11-08T00:03:47.579Z,69.39
2022-11-08T00:06:32.907Z,69.31
2022-11-08T00:09:23.090Z,69.14
2022-11-08T00:12:10.321Z,69.30
2022-11-08T00:14:37.157Z,69.76
2022-11-08T00:17:04.092Z,69.40
2022-11-08T00:19:30.984Z,69.30
2022-11-08T00:22:00.531Z,69.15
2022-11-08T00:24:27.327Z,69.35
2022-11-08T00:26:54.108Z,69.28
2022-11-08T00:29:22.143Z,69.34
2022-11-08T00:31:57.662Z,69.37
2022-11-08T00:34:24.231Z,69.28
2022-11-08T00:36:53.684Z,69.10
2022-11-08T00:39:21.248Z,69.27
2022-11-08T00:41:48.016Z,69.39
2022-11-08T00:44:14.651Z,68.94
2022-11-08T00:46:41.660Z,69.59
2022-11-08T00:49:11.526Z,69.42
2022-11-08T00:51:39.536Z,69.20
2022-11-08T00:54:09.318Z,69.94
2022-11-08T00:56:36.058Z,69.28
2022-11-08T00:59:02.830Z,69.66
2022-11-08T01:01:37.509Z,70.32
2022-11-08T01:04:04.754Z,69.75
2022-11-08T01:06:31.574Z,69.43
2022-11-08T01:08:58.277Z,69.40
2022-11-08T01:11:29.227Z,70.04
2022-11-08T01:14:00.874Z,69.31
2022-11-08T01:16:31.001Z,69.92
2022-11-08T01:19:02.138Z,70.11
2022-11-08T01:21:38.407Z,69.42
2022-11-08T01:24:06.168Z,68.89
2022-11-08T01:26:32.827Z,68.55
2022-11-08T01:29:06.108Z,69.14
2022-11-08T01:31:33.107Z,69.38
2022-11-08T01:34:03.214Z,68.53
2022-11-08T01:36:30.319Z,68.53
2022-11-08T01:38:57.566Z,67.84
2022-11-08T01:41:28.090Z,68.31
2022-11-08T01:44:03.028Z,68.84
2022-11-08T01:46:45.679Z,69.46
2022-11-08T01:49:25.674Z,68.72
2022-11-08T01:52:08.280Z,69.53
2022-11-08T01:54:54.164Z,69.71
2022-11-08T01:57:26.838Z,69.49
2022-11-08T02:00:00.683Z,69.70
2022-11-08T02:02:30.413Z,69.93
2022-11-08T02:04:59.170Z,70.49
2022-11-08T02:07:29.411Z,70.12
2022-11-08T02:09:57.487Z,70.27
2022-11-08T02:12:27.002Z,70.67
2022-11-08T02:14:57.470Z,70.78
2022-11-08T02:17:24.795Z,70.85
2022-11-08T02:19:53.932Z,70.50
2022-11-08T02:22:38.302Z,70.99
2022-11-08T02:25:07.550Z,70.73
2022-11-08T02:27:35.170Z,71.08
2022-11-08T02:30:01.876Z,70.83
2022-11-08T02:32:40.991Z,70.95
2022-11-08T02:35:16.899Z,71.03
2022-11-08T02:37:46.633Z,71.33
2022-11-08T02:40:19.493Z,71.27
2022-11-08T02:42:48.426Z,71.32
2022-11-08T02:45:18.099Z,71.29
2022-11-08T02:47:44.863Z,70.61
2022-11-08T02:50:14.134Z,71.28
2022-11-08T02:52:41.018Z,71.85
2022-11-08T02:55:14.021Z,71.28
2022-11-08T02:57:40.878Z,70.92
2022-11-08T03:00:08.367Z,71.45
2022-11-08T03:02:35.253Z,71.58
2022-11-08T03:05:02.552Z,71.74
2022-11-08T03:07:29.659Z,71.34
2022-11-08T03:09:56.736Z,71.03
2022-11-08T03:12:23.620Z,71.22
2022-11-08T03:14:50.656Z,71.31
2022-11-08T03:17:17.568Z,71.56
2022-11-08T03:19:44.445Z,70.61
2022-11-08T03:22:11.269Z,70.23
2022-11-08T03:24:38.691Z,70.36
2022-11-08T03:27:05.634Z,69.86
2022-11-08T03:29:32.425Z,70.45
2022-11-08T03:31:59.145Z,70.67
2022-11-08T03:34:32.699Z,70.45
2022-11-08T03:36:59.941Z,69.80
2022-11-08T03:39:27.985Z,69.86
2022-11-08T03:42:03.147Z,69.45
2022-11-08T03:44:30.838Z,70.67
2022-11-08T03:47:00.359Z,70.58
2022-11-08T03:49:33.262Z,70.83
2022-11-08T03:52:00.006Z,71.05
2022-11-08T03:54:27.276Z,71.37
2022-11-08T03:56:54.451Z,70.79
2022-11-08T03:59:21.213Z,70.56
2022-11-08T04:01:48.183Z,71.07
2022-11-08T04:04:18.130Z,71.09
2022-11-08T04:06:45.063Z,71.05
2022-11-08T04:09:11.961Z,71.49
2022-11-08T04:11:57.170Z,71.78
2022-11-08T04:14:42.420Z,71.80
2022-11-08T04:17:09.154Z,71.70
2022-11-08T04:19:55.952Z,71.77
2022-11-08T04:22:22.895Z,71.27
2022-11-08T04:24:50.975Z,72.13
2022-11-08T04:27:17.744Z,72.21
2022-11-08T04:29:44.702Z,71.51
2022-11-08T04:32:11.371Z,70.99
2022-11-08T04:34:40.592Z,70.31
2022-11-08T04:37:07.534Z,70.00
2022-11-08T04:39:34.310Z,70.24
2022-11-08T04:42:03.890Z,70.81
2022-11-08T04:44:30.551Z,70.38
2022-11-08T04:47:00.297Z,70.42
2022-11-08T04:49:28.566Z,70.40
2022-11-08T04:51:55.292Z,69.83
2022-11-08T04:54:24.036Z,70.33
2022-11-08T04:56:50.728Z,71.08
2022-11-08T04:59:18.377Z,71.38
2022-11-08T05:01:45.594Z,71.17
2022-11-08T05:04:12.484Z,71.67
2022-11-08T05:06:45.331Z,71.25
2022-11-08T05:09:15.174Z,71.79
2022-11-08T05:11:42.861Z,72.39
2022-11-08T05:14:10.260Z,72.42
2022-11-08T05:16:37.023Z,72.37
2022-11-08T05:19:06.939Z,72.51
2022-11-08T05:21:56.680Z,72.32
2022-11-08T05:24:23.407Z,72.76
2022-11-08T05:26:50.336Z,72.67
2022-11-08T05:29:17.535Z,72.57
2022-11-08T05:31:44.357Z,72.96
2022-11-08T05:34:11.162Z,72.90
2022-11-08T05:36:37.810Z,72.62
2022-11-08T05:39:07.173Z,72.89
2022-11-08T05:41:33.976Z,72.40
2022-11-08T05:44:00.598Z,72.66
2022-11-08T05:46:28.705Z,71.85
2022-11-08T05:48:55.783Z,71.17
2022-11-08T05:51:22.846Z,70.89
2022-11-08T05:53:49.770Z,71.02
2022-11-08T05:56:20.731Z,71.41
2022-11-08T05:58:50.119Z,72.11
2022-11-08T06:01:19.375Z,71.64
2022-11-08T06:03:47.317Z,71.38
2022-11-08T06:06:16.887Z,72.23
2022-11-08T06:08:48.898Z,72.30
2022-11-08T06:11:19.208Z,72.62
2022-11-08T06:13:45.885Z,71.71
2022-11-08T06:16:18.953Z,71.23
2022-11-08T06:18:46.113Z,72.00
2022-11-08T06:21:18.400Z,71.45
2022-11-08T06:23:45.242Z,71.70
2022-11-08T06:26:12.179Z,72.11
2022-11-08T06:28:39.050Z,72.13
2022-11-08T06:31:06.115Z,71.56
2022-11-08T06:33:32.942Z,71.90
2022-11-08T06:35:59.834Z,71.58
2022-11-08T06:38:28.169Z,71.91
2022-11-08T06:40:55.977Z,71.91
2022-11-08T06:43:23.236Z,72.48
2022-11-08T06:45:52.422Z,72.48
2022-11-08T06:48:20.699Z,73.05
2022-11-08T06:50:47.404Z,72.12
2022-11-08T06:53:15.141Z,72.82
2022-11-08T06:55:42.312Z,72.98
2022-11-08T06:58:10.813Z,72.65
2022-11-08T07:00:37.754Z,72.32
2022-11-08T07:03:04.880Z,72.19
2022-11-08T07:05:34.388Z,72.95
2022-11-08T07:08:06.283Z,73.08
2022-11-08T07:10:40.610Z,72.56
2022-11-08T07:13:11.761Z,72.86
2022-11-08T07:15:38.710Z,72.70
2022-11-08T07:18:08.391Z,72.70
2022-11-08T07:20:35.413Z,72.71
2022-11-08T07:23:02.205Z,73.01
2022-11-08T07:25:30.125Z,72.48
2022-11-08T07:28:00.180Z,72.95
2022-11-08T07:30:27.801Z,72.00
2022-11-08T07:32:56.552Z,72.30
2022-11-08T07:35:24.191Z,72.56
2022-11-08T07:37:51.064Z,72.10
2022-11-08T07:40:20.330Z,72.39
2022-11-08T07:43:43.411Z,72.59
2022-11-08T07:46:10.099Z,72.46
2022-11-08T07:48:37.348Z,72.38
2022-11-08T07:51:04.200Z,71.34
2022-11-08T07:53:31.458Z,71.22
2022-11-08T07:55:58.749Z,71.13
2022-11-08T07:58:25.586Z,70.13
2022-11-08T08:00:52.278Z,70.43
2022-11-08T08:03:21.611Z,69.94
2022-11-08T08:05:56.531Z,69.54
2022-11-08T08:08:32.935Z,69.17
2022-11-08T08:11:02.382Z,68.95
2022-11-08T08:13:36.824Z,68.92
2022-11-08T08:16:04.033Z,68.49
2022-11-08T08:18:31.051Z,68.19
2022-11-08T08:21:00.849Z,67.98
2022-11-08T08:23:27.867Z,67.26
2022-11-08T08:25:54.715Z,66.51
2022-11-08T08:28:26.670Z,65.44
2022-11-08T08:30:56.591Z,65.59
2022-11-08T08:33:30.652Z,64.81
2022-11-08T08:36:00.719Z,65.11
2022-11-08T08:38:27.725Z,63.86
2022-11-08T08:40:54.536Z,64.46
2022-11-08T08:43:27.299Z,63.60
2022-11-08T08:45:59.141Z,62.52
2022-11-08T08:48:25.673Z,61.09
2022-11-08T08:50:55.852Z,62.34
2022-11-08T08:53:22.732Z,61.13
2022-11-08T08:55:52.534Z,60.57
2022-11-08T08:58:21.107Z,59.61
2022-11-08T09:03:39.751Z,61.13
2022-11-08T09:06:06.626Z,61.04
2022-11-08T09:08:33.444Z,61.26
2022-11-08T09:11:01.649Z,61.23
2022-11-08T09:13:31.039Z,60.68
2022-11-08T09:16:02.031Z,60.36
2022-11-08T09:18:29.270Z,59.57
2022-11-08T09:20:59.900Z,59.09
2022-11-08T09:23:27.528Z,59.62
2022-11-08T09:26:03.329Z,58.48
2022-11-08T09:28:34.490Z,57.87
2022-11-08T09:31:06.359Z,57.56
2022-11-08T09:33:33.267Z,57.16
2022-11-08T09:36:01.710Z,57.51
2022-11-08T09:38:30.371Z,57.45
2022-11-08T09:41:19.646Z,56.65
2022-11-08T09:43:57.291Z,55.78
2022-11-08T09:46:38.836Z,55.89
2022-11-08T09:49:24.224Z,56.01
2022-11-08T09:51:52.063Z,55.82
2022-11-08T09:54:27.500Z,55.28
2022-11-08T09:56:55.739Z,55.17
2022-11-08T10:03:16.976Z,54.87
2022-11-08T10:06:00.254Z,54.81
2022-11-08T10:08:43.153Z,54.96
2022-11-08T10:11:22.839Z,55.14
2022-11-08T10:14:19.595Z,54.27
2022-11-08T10:17:07.540Z,54.50
2022-11-08T10:19:51.764Z,54.52
2022-11-08T10:22:24.536Z,54.62
2022-11-08T10:25:04.282Z,54.97
2022-11-08T10:27:41.043Z,55.40
2022-11-08T10:30:34.660Z,54.92
2022-11-08T10:33:02.615Z,55.82
2022-11-08T10:35:43.072Z,54.80
2022-11-08T10:38:24.962Z,54.67
2022-11-08T10:40:53.028Z,54.36
2022-11-08T10:44:13.007Z,53.88
2022-11-08T10:46:48.730Z,53.90
2022-11-08T10:49:17.460Z,53.71
2022-11-08T10:51:45.997Z,52.95
2022-11-08T10:54:43.796Z,52.50
2022-11-08T10:57:33.190Z,52.83
2022-11-08T11:00:24.590Z,53.29
2022-11-08T11:03:12.103Z,52.29
2022-11-08T11:05:43.163Z,53.05
2022-11-08T11:08:09.828Z,53.48
2022-11-08T11:10:43.635Z,52.69
2022-11-08T11:13:16.579Z,53.11
2022-11-08T11:15:52.944Z,53.07
2022-11-08T11:18:33.298Z,53.07
2022-11-08T11:21:01.303Z,53.87
2022-11-08T11:23:43.741Z,53.14
2022-11-08T11:26:32.150Z,53.51
2022-11-08T11:29:22.152Z,53.52
2022-11-08T11:31:54.950Z,54.06
2022-11-08T11:34:35.032Z,54.03
2022-11-08T11:37:38.268Z,54.07
2022-11-08T11:40:15.962Z,54.43
2022-11-08T11:42:55.379Z,53.86
2022-11-08T11:45:46.775Z,54.56
2022-11-08T11:48:21.738Z,55.04
2022-11-08T11:50:50.253Z,54.92
2022-11-08T11:53:16.961Z,54.66
2022-11-08T11:55:46.852Z,54.90
2022-11-08T11:58:30.746Z,54.97
2022-11-08T12:01:46.438Z,54.78
2022-11-08T12:04:13.105Z,54.56
2022-11-08T12:06:49.010Z,55.58
2022-11-08T12:09:42.211Z,56.39
2022-11-08T12:12:42.884Z,55.28
2022-11-08T12:15:48.274Z,55.55
2022-11-08T12:18:42.619Z,55.24
2022-11-08T12:21:15.638Z,55.40
2022-11-08T12:24:16.466Z,56.27
2022-11-08T12:27:13.983Z,55.69
2022-11-08T12:29:41.487Z,55.41
2022-11-08T12:32:20.283Z,55.54
2022-11-08T12:34:46.988Z,55.34
2022-11-08T12:37:34.576Z,55.20
2022-11-08T12:40:17.418Z,55.73
2022-11-08T12:43:08.496Z,55.42
2022-11-08T12:45:38.999Z,55.39
2022-11-08T12:48:32.779Z,55.51
2022-11-08T12:51:09.180Z,55.57
2022-11-08T12:53:59.229Z,55.22
2022-11-08T12:56:46.235Z,55.46
2022-11-08T12:59:30.351Z,55.83
2022-11-08T13:01:58.712Z,55.87
2022-11-08T13:04:47.032Z,55.74
2022-11-08T13:07:36.571Z,56.52
2022-11-08T13:10:13.147Z,55.65
2022-11-08T13:12:54.957Z,55.67
2022-11-08T13:15:28.686Z,56.13
2022-11-08T13:18:07.833Z,56.04
2022-11-08T13:20:47.124Z,56.16
2022-11-08T13:23:23.625Z,56.65
2022-11-08T13:25:52.073Z,56.33
2022-11-08T13:28:35.656Z,56.44
2022-11-08T13:31:24.570Z,56.65
2022-11-08T13:34:14.363Z,56.51
2022-11-08T13:37:05.772Z,56.49
2022-11-08T13:40:00.401Z,56.61
2022-11-08T13:42:30.828Z,56.56
2022-11-08T13:45:13.068Z,56.38
2022-11-08T13:47:42.902Z,56.42
2022-11-08T13:50:27.981Z,56.87
2022-11-08T13:53:10.810Z,57.00
2022-11-08T13:55:43.568Z,56.88
2022-11-08T13:58:29.233Z,56.44
2022-11-08T14:01:01.123Z,56.97
2022-11-08T14:03:33.929Z,56.84
2022-11-08T14:06:09.066Z,56.61
2022-11-08T14:09:20.734Z,56.81
2022-11-08T14:11:54.240Z,57.22
2022-11-08T14:14:39.698Z,56.80
2022-11-08T14:17:33.331Z,56.86
2022-11-08T14:20:18.730Z,56.63
2022-11-08T14:22:50.404Z,56.76
2022-11-08T14:25:26.662Z,56.91
2022-11-08T14:27:54.324Z,57.60
2022-11-08T14:30:23.873Z,57.23
2022-11-08T14:33:14.520Z,57.59
2022-11-08T14:36:20.213Z,57.05
2022-11-08T14:39:04.020Z,57.41
2022-11-08T14:41:32.723Z,57.23
2022-11-08T14:44:01.577Z,57.66
2022-11-08T14:46:40.960Z,57.45
2022-11-08T14:49:13.846Z,57.87
2022-11-08T14:51:41.250Z,57.29
2022-11-08T14:54:25.270Z,56.99
2022-11-08T14:56:52.210Z,57.59
2022-11-08T14:59:19.234Z,57.41
2022-11-08T15:01:48.838Z,57.72
2022-11-08T15:04:21.620Z,58.10
2022-11-08T15:06:58.047Z,58.52
2022-11-08T15:09:33.648Z,57.81
2022-11-08T15:12:03.246Z,58.50
2022-11-08T15:14:37.211Z,59.03
2022-11-08T15:17:04.204Z,58.71
2022-11-08T15:19:43.332Z,59.38
2022-11-08T15:22:27.714Z,59.29
2022-11-08T15:25:34.584Z,60.52
2022-11-08T15:28:37.485Z,59.40
2022-11-08T15:31:17.167Z,59.64
2022-11-08T15:33:44.624Z,60.63
2022-11-08T15:36:13.551Z,60.10
2022-11-08T15:38:42.533Z,59.91
2022-11-08T15:41:44.912Z,60.39
2022-11-08T15:44:23.186Z,60.27
2022-11-08T15:46:51.779Z,60.37
2022-11-08T15:49:29.821Z,60.21
2022-11-08T15:52:00.539Z,61.03
2022-11-08T15:54:27.448Z,60.76
2022-11-08T15:56:58.681Z,61.52
2022-11-08T15:59:30.229Z,62.09
2022-11-08T16:02:00.733Z,62.00
2022-11-08T16:04:30.885Z,62.32
2022-11-08T16:06:58.651Z,61.79
2022-11-08T16:09:25.404Z,61.18
2022-11-08T16:11:55.284Z,61.43
2022-11-08T16:14:24.633Z,61.88
2022-11-08T16:16:56.554Z,61.90
2022-11-08T16:19:29.275Z,61.45
2022-11-08T16:21:58.594Z,62.05
2022-11-08T16:24:25.410Z,62.55
2022-11-08T16:26:54.633Z,62.83
2022-11-08T16:29:23.481Z,63.02
2022-11-08T16:31:53.363Z,63.59
2022-11-08T16:34:20.456Z,64.16
2022-11-08T16:39:55.518Z,64.09
2022-11-08T16:42:23.718Z,64.34
2022-11-08T16:44:51.985Z,64.61
2022-11-08T16:47:19.884Z,64.26
2022-11-08T16:49:51.455Z,63.62
2022-11-08T16:52:18.553Z,63.83
2022-11-08T16:54:45.236Z,64.75
2022-11-08T16:57:33.658Z,64.49
2022-11-08T16:59:58.892Z,64.73
2022-11-08T17:02:34.641Z,65.89
2022-11-08T17:05:01.778Z,65.64
2022-11-08T17:07:29.456Z,65.90
2022-11-08T17:09:56.108Z,65.98
2022-11-08T17:12:24.276Z,65.76
2022-11-08T17:14:53.563Z,65.51
2022-11-08T17:17:30.642Z,65.36
2022-11-08T17:19:57.354Z,65.76
2022-11-08T17:22:24.152Z,65.79
2022-11-08T17:24:51.277Z,66.58
2022-11-08T17:27:19.891Z,65.89
2022-11-08T17:29:46.931Z,65.79
2022-11-08T17:32:14.586Z,66.26
2022-11-08T17:34:46.628Z,66.04
2022-11-08T17:37:17.671Z,66.28
2022-11-08T17:39:45.980Z,65.98
2022-11-08T17:42:13.071Z,66.31
2022-11-08T17:44:40.526Z,66.03
2022-11-08T17:47:07.323Z,66.09
2022-11-08T17:49:34.208Z,66.16
2022-11-08T17:52:00.926Z,66.25
2022-11-08T17:54:28.869Z,66.44
2022-11-08T17:56:55.878Z,66.69
2022-11-08T17:59:22.713Z,67.05
2022-11-08T18:01:52.812Z,66.83
2022-11-08T18:04:22.437Z,67.01
2022-11-08T18:06:52.555Z,67.46
2022-11-08T18:09:20.190Z,67.58
2022-11-08T18:11:50.616Z,68.14
2022-11-08T18:14:22.000Z,67.69
2022-11-08T18:16:56.127Z,67.90
2022-11-08T18:19:23.579Z,68.27
2022-11-08T18:21:50.512Z,68.49
2022-11-08T18:24:17.418Z,68.58
2022-11-08T18:26:44.460Z,68.09
2022-11-08T18:29:12.568Z,68.22
2022-11-08T18:31:39.805Z,68.63
2022-11-08T18:34:06.649Z,68.63
2022-11-08T18:36:33.588Z,68.91
2022-11-08T18:39:01.391Z,68.58
2022-11-08T18:41:31.699Z,68.60
2022-11-08T18:44:02.390Z,67.82
2022-11-08T18:46:36.558Z,68.35
2022-11-08T18:49:14.822Z,68.49
2022-11-08T18:51:45.448Z,69.09
2022-11-08T18:54:12.544Z,68.93
2022-11-08T18:56:41.311Z,69.54
2022-11-08T18:59:11.317Z,69.19
2022-11-08T19:01:51.217Z,69.61
2022-11-08T19:04:18.078Z,69.38
2022-11-08T19:06:48.784Z,69.49
2022-11-08T19:09:19.410Z,69.00
2022-11-08T19:11:47.775Z,69.42
2022-11-08T19:14:17.209Z,69.29
2022-11-08T19:16:44.141Z,68.62
2022-11-08T19:19:13.982Z,67.84
2022-11-08T19:21:44.535Z,68.50
2022-11-08T19:24:17.772Z,68.63
2022-11-08T19:26:46.529Z,68.62
2022-11-08T19:29:14.369Z,68.22
2022-11-08T19:31:47.817Z,68.69
2022-11-08T19:34:15.844Z,69.29
2022-11-08T19:36:49.030Z,68.98
2022-11-08T19:39:19.339Z,68.41
2022-11-08T19:41:48.271Z,68.92
2022-11-08T19:44:19.155Z,68.88
2022-11-08T19:46:46.179Z,69.10
2022-11-08T19:49:13.186Z,69.55
2022-11-08T19:51:42.195Z,68.96
2022-11-08T19:54:21.726Z,69.38
2022-11-08T19:57:10.534Z,69.79
2022-11-08T19:59:40.414Z,69.67
2022-11-08T20:02:07.462Z,69.80
2022-11-08T20:04:34.691Z,69.59
2022-11-08T20:07:02.666Z,68.87
2022-11-08T20:09:33.038Z,68.16
2022-11-08T20:12:00.092Z,68.95
2022-11-08T20:14:28.514Z,69.29
2022-11-08T20:16:55.785Z,69.53
2022-11-08T20:19:28.166Z,69.17
2022-11-08T20:21:58.197Z,68.71
2022-11-08T20:24:26.580Z,69.38
2022-11-08T20:26:58.067Z,69.58
2022-11-08T20:29:30.551Z,69.49
2022-11-08T20:31:58.090Z,69.54
2022-11-08T20:34:26.444Z,69.09
2022-11-08T20:36:55.687Z,68.97
2022-11-08T20:39:23.762Z,68.92
2022-11-08T20:41:56.838Z,69.25
2022-11-08T20:44:24.370Z,70.20
2022-11-08T20:46:51.929Z,70.00
2022-11-08T20:49:20.476Z,70.36
2022-11-08T20:51:49.167Z,70.18
2022-11-08T20:54:17.557Z,70.39
2022-11-08T20:56:48.886Z,70.61
2022-11-08T20:59:23.578Z,70.76
2022-11-08T21:01:53.002Z,70.95
2022-11-08T21:04:20.868Z,70.92
2022-11-08T21:06:47.791Z,71.07
2022-11-08T21:09:37.431Z,70.91
2022-11-08T21:12:09.522Z,70.85
2022-11-08T21:14:38.935Z,71.31
2022-11-08T21:17:22.632Z,71.43
2022-11-08T21:19:51.251Z,71.26
2022-11-08T21:22:21.544Z,70.82
2022-11-08T21:24:51.196Z,70.44
2022-11-08T21:27:18.420Z,70.61
2022-11-08T21:29:48.130Z,70.94
2022-11-08T21:32:20.842Z,70.95
2022-11-08T21:34:50.935Z,71.33
2022-11-08T21:37:17.736Z,71.51
2022-11-08T21:39:59.007Z,71.32
2022-11-08T21:42:26.989Z,71.23
2022-11-08T21:44:53.871Z,71.46
2022-11-08T21:47:25.720Z,71.21
2022-11-08T21:49:53.043Z,71.64
2022-11-08T21:52:28.536Z,71.80
2022-11-08T21:54:55.602Z,72.17
2022-11-08T21:57:23.641Z,72.24
2022-11-08T21:59:50.393Z,72.12
2022-11-08T22:02:17.216Z,71.99
2022-11-08T22:04:47.658Z,72.72
2022-11-08T22:07:14.517Z,72.38
2022-11-08T22:09:42.526Z,72.73
2022-11-08T22:12:11.630Z,72.26
2022-11-08T22:14:38.878Z,71.96
2022-11-08T22:17:06.522Z,72.08
2022-11-08T22:19:33.923Z,72.70
2022-11-08T22:22:04.995Z,72.51
2022-11-08T22:24:32.512Z,72.51
2022-11-08T22:27:04.130Z,71.94
2022-11-08T22:29:31.079Z,72.52
2022-11-08T22:31:58.775Z,72.60
2022-11-08T22:34:25.856Z,72.91
2022-11-08T22:36:52.660Z,72.16
2022-11-08T22:39:33.273Z,71.91
2022-11-08T22:42:00.310Z,72.37
2022-11-08T22:44:32.932Z,72.08
2022-11-08T22:46:59.523Z,72.28
2022-11-08T22:49:26.176Z,72.07
2022-11-08T22:51:53.412Z,72.41
2022-11-08T22:54:20.180Z,72.19
2022-11-08T22:56:48.333Z,72.38
2022-11-08T22:59:19.154Z,72.63
2022-11-08T23:01:49.000Z,72.53
2022-11-08T23:04:15.820Z,72.57
2022-11-08T23:06:44.427Z,73.07
2022-11-08T23:09:13.453Z,72.81
2022-11-08T23:11:59.376Z,73.04
2022-11-08T23:14:47.074Z,72.61
2022-11-08T23:17:13.865Z,72.63
2022-11-08T23:19:59.233Z,72.00
2022-11-08T23:22:47.526Z,71.80
2022-11-08T23:25:14.795Z,72.35
2022-11-08T23:27:59.918Z,72.56
2022-11-08T23:30:47.034Z,72.61
2022-11-08T23:33:13.974Z,72.43
2022-11-08T23:36:00.796Z,72.25
2022-11-08T23:38:27.525Z,72.86
2022-11-08T23:41:17.366Z,72.60
2022-11-08T23:44:03.886Z,72.47
2022-11-08T23:46:30.639Z,72.53
2022-11-08T23:48:57.391Z,71.97
2022-11-08T23:51:25.822Z,71.72
2022-11-08T23:53:52.709Z,71.88
2022-11-08T23:56:26.996Z,72.55
2022-11-08T23:58:58.198Z,72.48
